sensor_id;sensor_type;location;lat;lon;timestamp;P1;durP1;ratioP1;P2;durP2;ratioP2
32734;SDS011;19112;51.076;3.706;2023-04-23T00:01:05;39.25;;;21.75;;
32734;SDS011;19112;51.076;3.706;2023-04-23T00:03:32;38.92;;;21.48;;
32734;SDS011;19112;51.076;3.706;2023-04-23T00:06:04;42.13;;;21.88;;
32734;SDS011;19112;51.076;3.706;2023-04-23T00:08:32;38.15;;;22.40;;
32734;SDS011;19112;51.076;3.706;2023-04-23T00:10:58;38.65;;;21.75;;
32734;SDS011;19112;51.076;3.706;2023-04-23T00:13:24;40.33;;;21.75;;
32734;SDS011;19112;51.076;3.706;2023-04-23T00:15:51;38.83;;;22.50;;
32734;SDS011;19112;51.076;3.706;2023-04-23T00:18:17;37.58;;;22.08;;
32734;SDS011;19112;51.076;3.706;2023-04-23T00:20:44;40.35;;;23.33;;
32734;SDS011;19112;51.076;3.706;2023-04-23T00:23:10;38.45;;;21.63;;
32734;SDS011;19112;51.076;3.706;2023-04-23T00:25:36;37.92;;;20.88;;
32734;SDS011;19112;51.076;3.706;2023-04-23T00:28:02;40.65;;;21.88;;
32734;SDS011;19112;51.076;3.706;2023-04-23T00:30:27;40.38;;;22.48;;
32734;SDS011;19112;51.076;3.706;2023-04-23T00:32:53;38.63;;;21.17;;
32734;SDS011;19112;51.076;3.706;2023-04-23T00:35:19;38.05;;;21.30;;
32734;SDS011;19112;51.076;3.706;2023-04-23T00:37:45;39.42;;;22.38;;
32734;SDS011;19112;51.076;3.706;2023-04-23T00:40:11;40.28;;;22.95;;
32734;SDS011;19112;51.076;3.706;2023-04-23T00:42:37;37.67;;;21.50;;
32734;SDS011;19112;51.076;3.706;2023-04-23T00:45:07;41.40;;;23.00;;
32734;SDS011;19112;51.076;3.706;2023-04-23T00:47:34;40.85;;;22.48;;
32734;SDS011;19112;51.076;3.706;2023-04-23T00:50:00;42.63;;;23.05;;
32734;SDS011;19112;51.076;3.706;2023-04-23T00:52:27;42.05;;;23.23;;
32734;SDS011;19112;51.076;3.706;2023-04-23T00:54:53;40.85;;;22.63;;
32734;SDS011;19112;51.076;3.706;2023-04-23T00:57:20;40.65;;;22.08;;
32734;SDS011;19112;51.076;3.706;2023-04-23T00:59:47;38.92;;;20.88;;
32734;SDS011;19112;51.076;3.706;2023-04-23T01:02:13;41.97;;;23.00;;
32734;SDS011;19112;51.076;3.706;2023-04-23T01:04:41;42.58;;;23.55;;
32734;SDS011;19112;51.076;3.706;2023-04-23T01:07:10;40.17;;;22.42;;
32734;SDS011;19112;51.076;3.706;2023-04-23T01:09:37;41.42;;;22.65;;
32734;SDS011;19112;51.076;3.706;2023-04-23T01:12:04;40.97;;;22.30;;
32734;SDS011;19112;51.076;3.706;2023-04-23T01:14:31;43.65;;;23.65;;
32734;SDS011;19112;51.076;3.706;2023-04-23T01:16:57;40.83;;;22.42;;
32734;SDS011;19112;51.076;3.706;2023-04-23T01:19:23;41.55;;;23.13;;
32734;SDS011;19112;51.076;3.706;2023-04-23T01:21:49;42.10;;;22.65;;
32734;SDS011;19112;51.076;3.706;2023-04-23T01:24:15;37.75;;;21.42;;
32734;SDS011;19112;51.076;3.706;2023-04-23T01:26:41;43.72;;;22.63;;
32734;SDS011;19112;51.076;3.706;2023-04-23T01:29:08;39.92;;;22.15;;
32734;SDS011;19112;51.076;3.706;2023-04-23T01:31:35;40.30;;;22.42;;
32734;SDS011;19112;51.076;3.706;2023-04-23T01:34:01;41.10;;;23.15;;
32734;SDS011;19112;51.076;3.706;2023-04-23T01:36:27;42.78;;;23.67;;
32734;SDS011;19112;51.076;3.706;2023-04-23T01:38:55;39.53;;;21.60;;
32734;SDS011;19112;51.076;3.706;2023-04-23T01:41:21;40.58;;;22.38;;
32734;SDS011;19112;51.076;3.706;2023-04-23T01:43:47;40.22;;;22.67;;
32734;SDS011;19112;51.076;3.706;2023-04-23T01:46:13;43.97;;;22.58;;
32734;SDS011;19112;51.076;3.706;2023-04-23T01:48:39;40.88;;;22.35;;
32734;SDS011;19112;51.076;3.706;2023-04-23T01:51:05;41.30;;;23.45;;
32734;SDS011;19112;51.076;3.706;2023-04-23T01:53:33;37.97;;;21.83;;
32734;SDS011;19112;51.076;3.706;2023-04-23T01:55:58;40.08;;;22.35;;
32734;SDS011;19112;51.076;3.706;2023-04-23T01:58:26;44.17;;;23.30;;
32734;SDS011;19112;51.076;3.706;2023-04-23T02:00:52;39.67;;;22.67;;
32734;SDS011;19112;51.076;3.706;2023-04-23T02:03:18;43.08;;;23.50;;
32734;SDS011;19112;51.076;3.706;2023-04-23T02:05:44;41.90;;;21.60;;
32734;SDS011;19112;51.076;3.706;2023-04-23T02:08:10;40.85;;;22.40;;
32734;SDS011;19112;51.076;3.706;2023-04-23T02:10:36;39.42;;;21.27;;
32734;SDS011;19112;51.076;3.706;2023-04-23T02:13:02;43.03;;;22.98;;
32734;SDS011;19112;51.076;3.706;2023-04-23T02:15:28;40.88;;;23.35;;
32734;SDS011;19112;51.076;3.706;2023-04-23T02:17:54;42.17;;;22.55;;
32734;SDS011;19112;51.076;3.706;2023-04-23T02:20:20;43.40;;;23.50;;
32734;SDS011;19112;51.076;3.706;2023-04-23T02:22:47;41.33;;;22.20;;
32734;SDS011;19112;51.076;3.706;2023-04-23T02:25:15;40.42;;;21.88;;
32734;SDS011;19112;51.076;3.706;2023-04-23T02:27:42;38.65;;;21.83;;
32734;SDS011;19112;51.076;3.706;2023-04-23T02:30:09;41.20;;;21.75;;
32734;SDS011;19112;51.076;3.706;2023-04-23T02:32:36;37.17;;;21.05;;
32734;SDS011;19112;51.076;3.706;2023-04-23T02:35:03;39.83;;;20.58;;
32734;SDS011;19112;51.076;3.706;2023-04-23T02:37:33;40.83;;;20.38;;
32734;SDS011;19112;51.076;3.706;2023-04-23T02:40:01;39.88;;;21.65;;
32734;SDS011;19112;51.076;3.706;2023-04-23T02:42:29;41.17;;;21.25;;
32734;SDS011;19112;51.076;3.706;2023-04-23T02:44:55;37.17;;;19.98;;
32734;SDS011;19112;51.076;3.706;2023-04-23T02:47:21;39.17;;;20.88;;
32734;SDS011;19112;51.076;3.706;2023-04-23T02:49:47;39.42;;;19.30;;
32734;SDS011;19112;51.076;3.706;2023-04-23T02:52:13;38.13;;;20.20;;
32734;SDS011;19112;51.076;3.706;2023-04-23T02:54:39;42.67;;;22.55;;
32734;SDS011;19112;51.076;3.706;2023-04-23T02:57:04;36.25;;;19.15;;
32734;SDS011;19112;51.076;3.706;2023-04-23T02:59:31;41.88;;;20.08;;
32734;SDS011;19112;51.076;3.706;2023-04-23T03:01:57;37.10;;;18.65;;
32734;SDS011;19112;51.076;3.706;2023-04-23T03:04:22;37.38;;;19.17;;
32734;SDS011;19112;51.076;3.706;2023-04-23T03:06:48;39.70;;;20.10;;
32734;SDS011;19112;51.076;3.706;2023-04-23T03:09:14;36.75;;;19.55;;
32734;SDS011;19112;51.076;3.706;2023-04-23T03:11:40;35.95;;;19.45;;
32734;SDS011;19112;51.076;3.706;2023-04-23T03:14:06;40.38;;;19.10;;
32734;SDS011;19112;51.076;3.706;2023-04-23T03:16:32;35.63;;;18.63;;
32734;SDS011;19112;51.076;3.706;2023-04-23T03:18:58;37.28;;;18.90;;
32734;SDS011;19112;51.076;3.706;2023-04-23T03:21:25;37.53;;;19.67;;
32734;SDS011;19112;51.076;3.706;2023-04-23T03:23:51;40.72;;;18.08;;
32734;SDS011;19112;51.076;3.706;2023-04-23T03:26:17;36.45;;;19.00;;
32734;SDS011;19112;51.076;3.706;2023-04-23T03:28:43;36.75;;;18.80;;
32734;SDS011;19112;51.076;3.706;2023-04-23T03:31:09;35.38;;;17.65;;
32734;SDS011;19112;51.076;3.706;2023-04-23T03:33:35;37.78;;;17.92;;
32734;SDS011;19112;51.076;3.706;2023-04-23T03:36:01;34.50;;;17.65;;
32734;SDS011;19112;51.076;3.706;2023-04-23T03:38:27;34.65;;;17.58;;
32734;SDS011;19112;51.076;3.706;2023-04-23T03:40:53;37.03;;;18.55;;
32734;SDS011;19112;51.076;3.706;2023-04-23T03:43:19;38.03;;;18.08;;
32734;SDS011;19112;51.076;3.706;2023-04-23T03:45:45;35.08;;;17.77;;
32734;SDS011;19112;51.076;3.706;2023-04-23T03:48:11;33.00;;;17.48;;
32734;SDS011;19112;51.076;3.706;2023-04-23T03:50:36;35.42;;;16.27;;
32734;SDS011;19112;51.076;3.706;2023-04-23T03:53:04;33.28;;;16.05;;
32734;SDS011;19112;51.076;3.706;2023-04-23T03:55:32;31.58;;;15.80;;
32734;SDS011;19112;51.076;3.706;2023-04-23T03:57:58;33.92;;;15.50;;
32734;SDS011;19112;51.076;3.706;2023-04-23T04:00:26;28.90;;;14.73;;
32734;SDS011;19112;51.076;3.706;2023-04-23T04:02:51;31.95;;;13.85;;
32734;SDS011;19112;51.076;3.706;2023-04-23T04:05:17;29.25;;;14.10;;
32734;SDS011;19112;51.076;3.706;2023-04-23T04:07:43;29.17;;;13.32;;
32734;SDS011;19112;51.076;3.706;2023-04-23T04:10:09;29.05;;;12.57;;
32734;SDS011;19112;51.076;3.706;2023-04-23T04:12:35;27.48;;;12.65;;
32734;SDS011;19112;51.076;3.706;2023-04-23T04:15:01;25.98;;;12.10;;
32734;SDS011;19112;51.076;3.706;2023-04-23T04:17:28;28.10;;;11.43;;
32734;SDS011;19112;51.076;3.706;2023-04-23T04:19:54;24.42;;;10.75;;
32734;SDS011;19112;51.076;3.706;2023-04-23T04:22:20;21.92;;;10.32;;
32734;SDS011;19112;51.076;3.706;2023-04-23T04:24:46;30.95;;;12.00;;
32734;SDS011;19112;51.076;3.706;2023-04-23T04:27:12;25.40;;;11.15;;
32734;SDS011;19112;51.076;3.706;2023-04-23T04:29:39;23.52;;;10.85;;
32734;SDS011;19112;51.076;3.706;2023-04-23T04:32:06;28.02;;;10.55;;
32734;SDS011;19112;51.076;3.706;2023-04-23T04:34:33;30.55;;;11.35;;
32734;SDS011;19112;51.076;3.706;2023-04-23T04:37:00;24.52;;;10.38;;
32734;SDS011;19112;51.076;3.706;2023-04-23T04:39:26;23.40;;;8.95;;
32734;SDS011;19112;51.076;3.706;2023-04-23T04:41:52;22.55;;;10.18;;
32734;SDS011;19112;51.076;3.706;2023-04-23T04:44:18;25.10;;;9.48;;
32734;SDS011;19112;51.076;3.706;2023-04-23T04:46:45;27.20;;;9.90;;
32734;SDS011;19112;51.076;3.706;2023-04-23T04:49:12;22.38;;;8.68;;
32734;SDS011;19112;51.076;3.706;2023-04-23T04:51:38;24.17;;;9.50;;
32734;SDS011;19112;51.076;3.706;2023-04-23T04:54:05;24.85;;;9.05;;
32734;SDS011;19112;51.076;3.706;2023-04-23T04:56:35;26.25;;;9.77;;
32734;SDS011;19112;51.076;3.706;2023-04-23T04:59:01;26.08;;;9.32;;
32734;SDS011;19112;51.076;3.706;2023-04-23T05:01:28;26.38;;;9.60;;
32734;SDS011;19112;51.076;3.706;2023-04-23T05:03:54;23.65;;;8.30;;
32734;SDS011;19112;51.076;3.706;2023-04-23T05:06:21;23.48;;;7.97;;
32734;SDS011;19112;51.076;3.706;2023-04-23T05:08:47;21.63;;;7.72;;
32734;SDS011;19112;51.076;3.706;2023-04-23T05:11:13;22.00;;;7.97;;
32734;SDS011;19112;51.076;3.706;2023-04-23T05:13:44;23.77;;;8.18;;
32734;SDS011;19112;51.076;3.706;2023-04-23T05:16:11;29.23;;;8.35;;
32734;SDS011;19112;51.076;3.706;2023-04-23T05:18:37;21.10;;;7.65;;
32734;SDS011;19112;51.076;3.706;2023-04-23T05:21:05;22.88;;;7.53;;
32734;SDS011;19112;51.076;3.706;2023-04-23T05:23:31;21.73;;;7.82;;
32734;SDS011;19112;51.076;3.706;2023-04-23T05:25:58;23.55;;;7.72;;
32734;SDS011;19112;51.076;3.706;2023-04-23T05:28:24;23.83;;;7.97;;
32734;SDS011;19112;51.076;3.706;2023-04-23T05:30:50;24.75;;;7.50;;
32734;SDS011;19112;51.076;3.706;2023-04-23T05:33:16;22.08;;;7.18;;
32734;SDS011;19112;51.076;3.706;2023-04-23T05:35:42;20.52;;;7.57;;
32734;SDS011;19112;51.076;3.706;2023-04-23T05:38:08;19.23;;;6.85;;
32734;SDS011;19112;51.076;3.706;2023-04-23T05:40:34;22.27;;;7.10;;
32734;SDS011;19112;51.076;3.706;2023-04-23T05:43:00;22.67;;;7.90;;
32734;SDS011;19112;51.076;3.706;2023-04-23T05:45:26;26.70;;;7.35;;
32734;SDS011;19112;51.076;3.706;2023-04-23T05:47:52;21.58;;;7.10;;
32734;SDS011;19112;51.076;3.706;2023-04-23T05:50:19;20.30;;;5.78;;
32734;SDS011;19112;51.076;3.706;2023-04-23T05:52:45;17.85;;;5.68;;
32734;SDS011;19112;51.076;3.706;2023-04-23T05:55:11;20.30;;;7.18;;
32734;SDS011;19112;51.076;3.706;2023-04-23T05:57:39;17.92;;;6.05;;
32734;SDS011;19112;51.076;3.706;2023-04-23T06:00:06;19.33;;;5.80;;
32734;SDS011;19112;51.076;3.706;2023-04-23T06:02:38;18.73;;;5.43;;
32734;SDS011;19112;51.076;3.706;2023-04-23T06:05:05;21.55;;;5.63;;
32734;SDS011;19112;51.076;3.706;2023-04-23T06:07:32;20.35;;;5.88;;
32734;SDS011;19112;51.076;3.706;2023-04-23T06:09:58;17.45;;;5.20;;
32734;SDS011;19112;51.076;3.706;2023-04-23T06:12:24;19.90;;;5.05;;
32734;SDS011;19112;51.076;3.706;2023-04-23T06:14:51;18.10;;;6.43;;
32734;SDS011;19112;51.076;3.706;2023-04-23T06:17:17;25.73;;;5.38;;
32734;SDS011;19112;51.076;3.706;2023-04-23T06:19:43;18.88;;;4.97;;
32734;SDS011;19112;51.076;3.706;2023-04-23T06:22:09;18.02;;;4.60;;
32734;SDS011;19112;51.076;3.706;2023-04-23T06:24:35;21.52;;;5.53;;
32734;SDS011;19112;51.076;3.706;2023-04-23T06:27:01;16.45;;;4.43;;
32734;SDS011;19112;51.076;3.706;2023-04-23T06:29:27;23.30;;;5.50;;
32734;SDS011;19112;51.076;3.706;2023-04-23T06:31:56;20.58;;;5.80;;
32734;SDS011;19112;51.076;3.706;2023-04-23T06:34:26;19.10;;;4.53;;
32734;SDS011;19112;51.076;3.706;2023-04-23T06:36:52;18.20;;;4.88;;
32734;SDS011;19112;51.076;3.706;2023-04-23T06:39:18;23.98;;;4.80;;
32734;SDS011;19112;51.076;3.706;2023-04-23T06:41:45;14.40;;;3.95;;
32734;SDS011;19112;51.076;3.706;2023-04-23T06:44:10;17.38;;;4.50;;
32734;SDS011;19112;51.076;3.706;2023-04-23T06:46:36;17.88;;;4.20;;
32734;SDS011;19112;51.076;3.706;2023-04-23T06:49:02;17.85;;;4.45;;
32734;SDS011;19112;51.076;3.706;2023-04-23T06:51:28;18.02;;;4.50;;
32734;SDS011;19112;51.076;3.706;2023-04-23T06:53:56;18.40;;;5.43;;
32734;SDS011;19112;51.076;3.706;2023-04-23T06:56:23;17.73;;;5.00;;
32734;SDS011;19112;51.076;3.706;2023-04-23T06:58:49;17.23;;;4.45;;
32734;SDS011;19112;51.076;3.706;2023-04-23T07:01:15;16.00;;;4.28;;
32734;SDS011;19112;51.076;3.706;2023-04-23T07:03:41;19.67;;;4.13;;
32734;SDS011;19112;51.076;3.706;2023-04-23T07:06:08;18.75;;;4.60;;
32734;SDS011;19112;51.076;3.706;2023-04-23T07:08:35;19.38;;;3.97;;
32734;SDS011;19112;51.076;3.706;2023-04-23T07:11:01;15.52;;;4.03;;
32734;SDS011;19112;51.076;3.706;2023-04-23T07:13:26;18.77;;;4.13;;
32734;SDS011;19112;51.076;3.706;2023-04-23T07:15:52;18.95;;;3.92;;
32734;SDS011;19112;51.076;3.706;2023-04-23T07:18:18;12.60;;;4.40;;
32734;SDS011;19112;51.076;3.706;2023-04-23T07:20:44;17.38;;;4.18;;
32734;SDS011;19112;51.076;3.706;2023-04-23T07:23:10;14.35;;;3.75;;
32734;SDS011;19112;51.076;3.706;2023-04-23T07:25:36;16.23;;;4.07;;
32734;SDS011;19112;51.076;3.706;2023-04-23T07:28:02;22.50;;;4.43;;
32734;SDS011;19112;51.076;3.706;2023-04-23T07:30:28;21.33;;;4.90;;
32734;SDS011;19112;51.076;3.706;2023-04-23T07:32:55;16.95;;;4.05;;
32734;SDS011;19112;51.076;3.706;2023-04-23T07:35:21;18.88;;;4.53;;
32734;SDS011;19112;51.076;3.706;2023-04-23T07:37:47;14.20;;;3.80;;
32734;SDS011;19112;51.076;3.706;2023-04-23T07:40:18;18.30;;;4.75;;
32734;SDS011;19112;51.076;3.706;2023-04-23T07:42:47;17.17;;;4.03;;
32734;SDS011;19112;51.076;3.706;2023-04-23T07:45:15;17.88;;;3.92;;
32734;SDS011;19112;51.076;3.706;2023-04-23T07:47:41;14.98;;;3.40;;
32734;SDS011;19112;51.076;3.706;2023-04-23T07:50:07;17.92;;;4.35;;
32734;SDS011;19112;51.076;3.706;2023-04-23T07:52:34;20.77;;;4.38;;
32734;SDS011;19112;51.076;3.706;2023-04-23T07:55:00;13.88;;;4.60;;
32734;SDS011;19112;51.076;3.706;2023-04-23T07:57:26;17.80;;;3.83;;
32734;SDS011;19112;51.076;3.706;2023-04-23T07:59:52;15.32;;;3.47;;
32734;SDS011;19112;51.076;3.706;2023-04-23T08:02:19;22.13;;;4.53;;
32734;SDS011;19112;51.076;3.706;2023-04-23T08:04:48;21.13;;;4.18;;
32734;SDS011;19112;51.076;3.706;2023-04-23T08:07:14;17.27;;;3.70;;
32734;SDS011;19112;51.076;3.706;2023-04-23T08:09:40;16.98;;;4.30;;
32734;SDS011;19112;51.076;3.706;2023-04-23T08:12:06;13.68;;;3.80;;
32734;SDS011;19112;51.076;3.706;2023-04-23T08:14:32;17.33;;;4.20;;
32734;SDS011;19112;51.076;3.706;2023-04-23T08:16:58;19.02;;;3.80;;
32734;SDS011;19112;51.076;3.706;2023-04-23T08:19:24;19.00;;;3.60;;
32734;SDS011;19112;51.076;3.706;2023-04-23T08:21:55;17.08;;;4.13;;
32734;SDS011;19112;51.076;3.706;2023-04-23T08:24:21;17.30;;;3.63;;
32734;SDS011;19112;51.076;3.706;2023-04-23T08:26:47;19.90;;;3.53;;
32734;SDS011;19112;51.076;3.706;2023-04-23T08:29:13;12.30;;;4.13;;
32734;SDS011;19112;51.076;3.706;2023-04-23T08:31:39;16.63;;;4.35;;
32734;SDS011;19112;51.076;3.706;2023-04-23T08:34:05;15.70;;;4.25;;
32734;SDS011;19112;51.076;3.706;2023-04-23T08:36:31;21.40;;;5.15;;
32734;SDS011;19112;51.076;3.706;2023-04-23T08:38:57;15.32;;;4.05;;
32734;SDS011;19112;51.076;3.706;2023-04-23T08:41:25;13.30;;;3.90;;
32734;SDS011;19112;51.076;3.706;2023-04-23T08:44:06;17.77;;;3.28;;
32734;SDS011;19112;51.076;3.706;2023-04-23T08:47:05;18.77;;;3.83;;
32734;SDS011;19112;51.076;3.706;2023-04-23T08:49:34;18.02;;;3.70;;
32734;SDS011;19112;51.076;3.706;2023-04-23T08:52:14;13.88;;;3.83;;
32734;SDS011;19112;51.076;3.706;2023-04-23T08:54:47;15.13;;;3.30;;
32734;SDS011;19112;51.076;3.706;2023-04-23T08:57:16;14.77;;;3.55;;
32734;SDS011;19112;51.076;3.706;2023-04-23T08:59:43;14.80;;;3.13;;
32734;SDS011;19112;51.076;3.706;2023-04-23T09:02:12;18.15;;;3.47;;
32734;SDS011;19112;51.076;3.706;2023-04-23T09:04:40;13.65;;;3.20;;
32734;SDS011;19112;51.076;3.706;2023-04-23T09:07:06;11.45;;;3.20;;
32734;SDS011;19112;51.076;3.706;2023-04-23T09:09:35;13.20;;;2.95;;
32734;SDS011;19112;51.076;3.706;2023-04-23T09:12:06;18.10;;;3.25;;
32734;SDS011;19112;51.076;3.706;2023-04-23T09:14:33;11.98;;;3.65;;
32734;SDS011;19112;51.076;3.706;2023-04-23T09:17:00;10.52;;;2.95;;
32734;SDS011;19112;51.076;3.706;2023-04-23T09:19:27;15.18;;;2.85;;
32734;SDS011;19112;51.076;3.706;2023-04-23T09:21:53;21.23;;;3.20;;
32734;SDS011;19112;51.076;3.706;2023-04-23T09:24:23;15.32;;;3.05;;
32734;SDS011;19112;51.076;3.706;2023-04-23T09:26:50;13.05;;;3.10;;
32734;SDS011;19112;51.076;3.706;2023-04-23T09:29:17;13.65;;;2.83;;
32734;SDS011;19112;51.076;3.706;2023-04-23T09:31:45;10.38;;;2.63;;
32734;SDS011;19112;51.076;3.706;2023-04-23T09:34:16;12.65;;;2.60;;
32734;SDS011;19112;51.076;3.706;2023-04-23T09:36:44;12.07;;;2.97;;
32734;SDS011;19112;51.076;3.706;2023-04-23T09:39:17;11.80;;;2.75;;
32734;SDS011;19112;51.076;3.706;2023-04-23T09:41:47;14.85;;;3.33;;
32734;SDS011;19112;51.076;3.706;2023-04-23T09:44:18;16.00;;;3.22;;
32734;SDS011;19112;51.076;3.706;2023-04-23T09:46:47;17.58;;;2.90;;
32734;SDS011;19112;51.076;3.706;2023-04-23T09:49:13;15.40;;;3.05;;
32734;SDS011;19112;51.076;3.706;2023-04-23T09:51:42;14.80;;;2.97;;
32734;SDS011;19112;51.076;3.706;2023-04-23T09:56:49;16.08;;;2.85;;
32734;SDS011;19112;51.076;3.706;2023-04-23T09:59:21;11.70;;;2.92;;
32734;SDS011;19112;51.076;3.706;2023-04-23T10:01:48;11.93;;;3.05;;
32734;SDS011;19112;51.076;3.706;2023-04-23T10:04:18;18.73;;;3.58;;
32734;SDS011;19112;51.076;3.706;2023-04-23T10:09:23;13.38;;;3.42;;
32734;SDS011;19112;51.076;3.706;2023-04-23T10:11:52;19.33;;;4.25;;
32734;SDS011;19112;51.076;3.706;2023-04-23T10:14:29;13.55;;;3.08;;
32734;SDS011;19112;51.076;3.706;2023-04-23T10:19:26;15.07;;;3.45;;
32734;SDS011;19112;51.076;3.706;2023-04-23T10:21:59;12.43;;;3.30;;
32734;SDS011;19112;51.076;3.706;2023-04-23T10:24:33;17.83;;;3.15;;
32734;SDS011;19112;51.076;3.706;2023-04-23T10:27:03;16.20;;;3.78;;
32734;SDS011;19112;51.076;3.706;2023-04-23T10:29:34;15.68;;;4.03;;
32734;SDS011;19112;51.076;3.706;2023-04-23T10:32:04;15.27;;;3.90;;
32734;SDS011;19112;51.076;3.706;2023-04-23T10:34:31;13.85;;;3.72;;
32734;SDS011;19112;51.076;3.706;2023-04-23T10:36:58;16.58;;;3.88;;
32734;SDS011;19112;51.076;3.706;2023-04-23T10:39:32;21.00;;;3.45;;
32734;SDS011;19112;51.076;3.706;2023-04-23T10:41:59;12.63;;;3.45;;
32734;SDS011;19112;51.076;3.706;2023-04-23T10:44:32;11.25;;;3.45;;
32734;SDS011;19112;51.076;3.706;2023-04-23T10:47:01;14.73;;;2.80;;
32734;SDS011;19112;51.076;3.706;2023-04-23T10:49:30;12.75;;;2.90;;
32734;SDS011;19112;51.076;3.706;2023-04-23T10:51:58;13.10;;;3.28;;
32734;SDS011;19112;51.076;3.706;2023-04-23T10:54:29;20.38;;;3.60;;
32734;SDS011;19112;51.076;3.706;2023-04-23T10:57:01;16.98;;;3.67;;
32734;SDS011;19112;51.076;3.706;2023-04-23T10:59:30;19.38;;;3.80;;
32734;SDS011;19112;51.076;3.706;2023-04-23T11:02:09;16.35;;;3.47;;
32734;SDS011;19112;51.076;3.706;2023-04-23T11:07:33;13.38;;;2.97;;
32734;SDS011;19112;51.076;3.706;2023-04-23T11:10:00;12.50;;;2.70;;
32734;SDS011;19112;51.076;3.706;2023-04-23T11:12:39;12.98;;;2.90;;
32734;SDS011;19112;51.076;3.706;2023-04-23T11:15:12;12.80;;;2.58;;
32734;SDS011;19112;51.076;3.706;2023-04-23T11:22:45;10.15;;;2.10;;
32734;SDS011;19112;51.076;3.706;2023-04-23T11:25:23;6.95;;;2.20;;
32734;SDS011;19112;51.076;3.706;2023-04-23T11:27:52;8.85;;;1.98;;
32734;SDS011;19112;51.076;3.706;2023-04-23T11:30:24;8.20;;;1.80;;
32734;SDS011;19112;51.076;3.706;2023-04-23T11:32:55;7.53;;;1.27;;
32734;SDS011;19112;51.076;3.706;2023-04-23T11:35:24;7.43;;;1.80;;
32734;SDS011;19112;51.076;3.706;2023-04-23T11:37:52;8.77;;;1.90;;
32734;SDS011;19112;51.076;3.706;2023-04-23T11:40:18;6.53;;;1.77;;
32734;SDS011;19112;51.076;3.706;2023-04-23T11:42:46;2.95;;;1.30;;
32734;SDS011;19112;51.076;3.706;2023-04-23T11:45:17;6.70;;;1.63;;
32734;SDS011;19112;51.076;3.706;2023-04-23T11:47:46;7.45;;;1.80;;
32734;SDS011;19112;51.076;3.706;2023-04-23T11:50:24;9.55;;;1.85;;
32734;SDS011;19112;51.076;3.706;2023-04-23T11:53:04;9.63;;;2.00;;
32734;SDS011;19112;51.076;3.706;2023-04-23T11:55:34;7.05;;;1.98;;
32734;SDS011;19112;51.076;3.706;2023-04-23T11:58:00;6.78;;;1.80;;
32734;SDS011;19112;51.076;3.706;2023-04-23T12:00:27;8.38;;;1.92;;
32734;SDS011;19112;51.076;3.706;2023-04-23T12:02:57;7.40;;;2.20;;
32734;SDS011;19112;51.076;3.706;2023-04-23T12:05:28;8.65;;;2.10;;
32734;SDS011;19112;51.076;3.706;2023-04-23T12:08:15;7.93;;;2.30;;
32734;SDS011;19112;51.076;3.706;2023-04-23T12:10:52;7.43;;;2.25;;
32734;SDS011;19112;51.076;3.706;2023-04-23T12:13:27;9.20;;;2.50;;
32734;SDS011;19112;51.076;3.706;2023-04-23T12:16:02;9.77;;;2.80;;
32734;SDS011;19112;51.076;3.706;2023-04-23T12:21:12;11.35;;;2.03;;
32734;SDS011;19112;51.076;3.706;2023-04-23T12:23:39;14.50;;;2.60;;
32734;SDS011;19112;51.076;3.706;2023-04-23T12:26:14;9.75;;;3.20;;
32734;SDS011;19112;51.076;3.706;2023-04-23T12:31:22;9.05;;;2.72;;
32734;SDS011;19112;51.076;3.706;2023-04-23T12:33:55;13.43;;;2.42;;
32734;SDS011;19112;51.076;3.706;2023-04-23T12:36:31;8.90;;;2.10;;
32734;SDS011;19112;51.076;3.706;2023-04-23T12:41:51;13.05;;;2.65;;
32734;SDS011;19112;51.076;3.706;2023-04-23T12:44:19;10.02;;;2.33;;
32734;SDS011;19112;51.076;3.706;2023-04-23T12:46:53;11.68;;;2.90;;
32734;SDS011;19112;51.076;3.706;2023-04-23T12:49:21;13.02;;;2.90;;
32734;SDS011;19112;51.076;3.706;2023-04-23T12:51:47;13.45;;;3.08;;
32734;SDS011;19112;51.076;3.706;2023-04-23T12:54:13;10.32;;;2.45;;
32734;SDS011;19112;51.076;3.706;2023-04-23T12:56:39;6.80;;;2.00;;
32734;SDS011;19112;51.076;3.706;2023-04-23T12:59:05;6.43;;;2.40;;
32734;SDS011;19112;51.076;3.706;2023-04-23T13:01:32;6.78;;;2.20;;
32734;SDS011;19112;51.076;3.706;2023-04-23T13:03:58;13.07;;;2.90;;
32734;SDS011;19112;51.076;3.706;2023-04-23T13:06:24;8.15;;;2.53;;
32734;SDS011;19112;51.076;3.706;2023-04-23T13:08:50;8.90;;;2.47;;
32734;SDS011;19112;51.076;3.706;2023-04-23T13:11:16;6.40;;;2.40;;
32734;SDS011;19112;51.076;3.706;2023-04-23T13:13:42;12.95;;;2.30;;
32734;SDS011;19112;51.076;3.706;2023-04-23T13:16:08;9.45;;;2.40;;
32734;SDS011;19112;51.076;3.706;2023-04-23T13:18:35;5.30;;;1.70;;
32734;SDS011;19112;51.076;3.706;2023-04-23T13:21:01;8.35;;;2.20;;
32734;SDS011;19112;51.076;3.706;2023-04-23T13:23:27;3.03;;;1.48;;
32734;SDS011;19112;51.076;3.706;2023-04-23T13:25:53;8.80;;;2.00;;
32734;SDS011;19112;51.076;3.706;2023-04-23T13:28:18;7.15;;;1.90;;
32734;SDS011;19112;51.076;3.706;2023-04-23T13:30:44;6.38;;;1.90;;
32734;SDS011;19112;51.076;3.706;2023-04-23T13:33:10;9.20;;;2.13;;
32734;SDS011;19112;51.076;3.706;2023-04-23T13:35:36;8.13;;;1.92;;
32734;SDS011;19112;51.076;3.706;2023-04-23T13:38:02;6.45;;;2.15;;
32734;SDS011;19112;51.076;3.706;2023-04-23T13:40:29;6.20;;;1.98;;
32734;SDS011;19112;51.076;3.706;2023-04-23T13:42:54;7.13;;;1.90;;
32734;SDS011;19112;51.076;3.706;2023-04-23T13:45:20;6.25;;;2.17;;
32734;SDS011;19112;51.076;3.706;2023-04-23T13:47:46;8.50;;;2.10;;
32734;SDS011;19112;51.076;3.706;2023-04-23T13:50:12;6.47;;;2.03;;
32734;SDS011;19112;51.076;3.706;2023-04-23T13:52:38;9.88;;;2.45;;
32734;SDS011;19112;51.076;3.706;2023-04-23T13:55:04;8.55;;;2.47;;
32734;SDS011;19112;51.076;3.706;2023-04-23T13:57:31;6.65;;;2.70;;
32734;SDS011;19112;51.076;3.706;2023-04-23T13:59:58;5.65;;;2.35;;
32734;SDS011;19112;51.076;3.706;2023-04-23T14:02:24;6.25;;;2.25;;
32734;SDS011;19112;51.076;3.706;2023-04-23T14:04:51;7.70;;;2.38;;
32734;SDS011;19112;51.076;3.706;2023-04-23T14:07:17;6.75;;;2.40;;
32734;SDS011;19112;51.076;3.706;2023-04-23T14:09:42;9.02;;;2.70;;
32734;SDS011;19112;51.076;3.706;2023-04-23T14:12:10;8.45;;;2.85;;
32734;SDS011;19112;51.076;3.706;2023-04-23T14:14:36;8.70;;;2.42;;
32734;SDS011;19112;51.076;3.706;2023-04-23T14:17:02;8.05;;;2.92;;
32734;SDS011;19112;51.076;3.706;2023-04-23T14:19:28;8.10;;;2.53;;
32734;SDS011;19112;51.076;3.706;2023-04-23T14:21:58;6.32;;;2.50;;
32734;SDS011;19112;51.076;3.706;2023-04-23T14:24:27;6.30;;;2.53;;
32734;SDS011;19112;51.076;3.706;2023-04-23T14:27:03;7.80;;;2.20;;
32734;SDS011;19112;51.076;3.706;2023-04-23T14:29:33;9.38;;;2.78;;
32734;SDS011;19112;51.076;3.706;2023-04-23T14:32:09;7.70;;;3.92;;
32734;SDS011;19112;51.076;3.706;2023-04-23T14:34:35;9.18;;;2.90;;
32734;SDS011;19112;51.076;3.706;2023-04-23T14:37:01;5.95;;;2.00;;
32734;SDS011;19112;51.076;3.706;2023-04-23T14:39:27;7.85;;;2.90;;
32734;SDS011;19112;51.076;3.706;2023-04-23T14:41:54;6.75;;;2.63;;
32734;SDS011;19112;51.076;3.706;2023-04-23T14:44:20;4.88;;;2.45;;
32734;SDS011;19112;51.076;3.706;2023-04-23T14:46:53;5.80;;;2.78;;
32734;SDS011;19112;51.076;3.706;2023-04-23T14:49:19;9.70;;;3.53;;
32734;SDS011;19112;51.076;3.706;2023-04-23T14:51:46;8.90;;;2.42;;
32734;SDS011;19112;51.076;3.706;2023-04-23T14:54:14;8.50;;;3.03;;
32734;SDS011;19112;51.076;3.706;2023-04-23T14:56:41;7.53;;;3.03;;
32734;SDS011;19112;51.076;3.706;2023-04-23T14:59:07;8.30;;;2.63;;